createdAt,value
2023-03-22T00:01:20.241Z,76.81
2023-03-22T00:03:48.590Z,76.69
2023-03-22T00:06:16.442Z,76.43
2023-03-22T00:08:44.287Z,76.31
2023-03-22T00:11:12.978Z,76.17
2023-03-22T00:13:43.019Z,76.19
2023-03-22T00:16:11.061Z,76.08
2023-03-22T00:18:38.437Z,76.22
2023-03-22T00:21:05.982Z,76.05
2023-03-22T00:23:33.098Z,75.81
2023-03-22T00:26:00.220Z,75.38
2023-03-22T00:28:27.359Z,75.47
2023-03-22T00:30:57.564Z,75.11
2023-03-22T00:33:25.908Z,75.12
2023-03-22T00:35:55.053Z,75.06
2023-03-22T00:38:32.527Z,74.70
2023-03-22T00:41:16.312Z,74.79
2023-03-22T00:43:44.063Z,74.91
2023-03-22T00:46:11.697Z,74.44
2023-03-22T00:48:39.722Z,74.39
2023-03-22T00:51:07.680Z,74.65
2023-03-22T00:53:36.611Z,74.33
2023-03-22T00:56:06.605Z,74.23
2023-03-22T00:58:33.897Z,73.99
2023-03-22T01:01:01.079Z,73.75
2023-03-22T01:03:28.325Z,73.62
2023-03-22T01:05:55.641Z,73.59
2023-03-22T01:08:24.761Z,73.99
2023-03-22T01:10:52.207Z,73.59
2023-03-22T01:13:19.703Z,73.62
2023-03-22T01:15:50.848Z,73.28
2023-03-22T01:18:18.320Z,73.09
2023-03-22T01:20:45.609Z,73.06
2023-03-22T01:23:14.010Z,72.81
2023-03-22T01:25:41.768Z,72.76
2023-03-22T01:28:09.762Z,72.72
2023-03-22T01:30:39.853Z,72.87
2023-03-22T01:33:07.789Z,73.28
2023-03-22T01:35:36.055Z,73.21
2023-03-22T01:38:04.102Z,73.13
2023-03-22T01:40:31.347Z,72.86
2023-03-22T01:42:58.371Z,72.95
2023-03-22T01:45:43.763Z,72.46
2023-03-22T01:48:17.817Z,72.83
2023-03-22T01:50:49.846Z,72.36
2023-03-22T01:53:19.036Z,72.14
2023-03-22T01:55:46.719Z,71.82
2023-03-22T01:58:17.974Z,72.02
2023-03-22T02:00:47.266Z,72.13
2023-03-22T02:03:16.884Z,71.85
2023-03-22T02:05:44.220Z,72.02
2023-03-22T02:08:15.092Z,71.85
2023-03-22T02:10:42.508Z,71.62
2023-03-22T02:13:20.928Z,71.48
2023-03-22T02:16:00.018Z,71.62
2023-03-22T02:18:54.970Z,71.62
2023-03-22T02:21:35.683Z,71.72
2023-03-22T02:24:35.387Z,71.66
2023-03-22T02:27:20.602Z,71.65
2023-03-22T02:29:54.677Z,71.65
2023-03-22T02:32:30.271Z,71.49
2023-03-22T02:35:29.615Z,71.77
2023-03-22T02:38:10.984Z,71.62
2023-03-22T02:41:00.510Z,71.96
2023-03-22T02:43:57.057Z,71.59
2023-03-22T02:46:31.636Z,71.66
2023-03-22T02:49:12.081Z,71.85
2023-03-22T02:51:43.611Z,71.58
2023-03-22T02:54:21.190Z,71.78
2023-03-22T02:57:01.074Z,71.70
2023-03-22T02:59:29.752Z,72.26
2023-03-22T03:01:59.609Z,72.71
2023-03-22T03:04:33.429Z,73.49
2023-03-22T03:07:07.547Z,73.58
2023-03-22T03:09:35.818Z,73.50
2023-03-22T03:12:03.194Z,73.47
2023-03-22T03:14:32.054Z,74.08
2023-03-22T03:17:20.291Z,74.74
2023-03-22T03:20:02.705Z,74.47
2023-03-22T03:22:49.359Z,74.42
2023-03-22T03:25:38.440Z,74.53
2023-03-22T03:28:30.326Z,74.78
2023-03-22T03:31:03.088Z,74.75
2023-03-22T03:33:32.375Z,75.69
2023-03-22T03:36:03.023Z,75.12
2023-03-22T03:38:31.973Z,74.94
2023-03-22T03:41:01.680Z,75.70
2023-03-22T03:43:28.951Z,75.92
2023-03-22T03:45:56.712Z,75.47
2023-03-22T03:48:28.355Z,75.14
2023-03-22T03:50:56.824Z,75.53
2023-03-22T03:53:24.045Z,74.99
2023-03-22T03:55:51.095Z,74.58
2023-03-22T03:58:18.205Z,74.29
2023-03-22T04:00:46.621Z,74.33
2023-03-22T04:03:14.358Z,74.25
2023-03-22T04:05:41.439Z,74.01
2023-03-22T04:08:08.798Z,73.97
2023-03-22T04:10:35.965Z,73.84
2023-03-22T04:13:03.247Z,73.52
2023-03-22T04:15:30.330Z,73.39
2023-03-22T04:17:57.396Z,73.31
2023-03-22T04:20:26.176Z,73.43
2023-03-22T04:22:53.271Z,73.16
2023-03-22T04:25:22.675Z,73.18
2023-03-22T04:27:51.302Z,73.17
2023-03-22T04:30:22.798Z,73.42
2023-03-22T04:32:50.230Z,73.18
2023-03-22T04:35:17.444Z,73.53
2023-03-22T04:37:45.630Z,73.54
2023-03-22T04:40:16.122Z,73.65
2023-03-22T04:42:44.363Z,73.78
2023-03-22T04:45:12.464Z,73.91
2023-03-22T04:47:40.550Z,73.61
2023-03-22T04:50:08.480Z,73.63
2023-03-22T04:52:35.735Z,73.50
2023-03-22T04:55:02.934Z,73.56
2023-03-22T04:57:30.115Z,73.42
2023-03-22T04:59:57.213Z,73.33
2023-03-22T05:02:24.300Z,73.36
2023-03-22T05:04:51.537Z,73.86
2023-03-22T05:07:18.578Z,74.10
2023-03-22T05:09:45.752Z,74.04
2023-03-22T05:12:13.533Z,73.73
2023-03-22T05:14:41.141Z,73.80
2023-03-22T05:17:08.549Z,73.88
2023-03-22T05:19:35.728Z,73.88
2023-03-22T05:22:02.802Z,74.30
2023-03-22T05:24:30.397Z,74.63
2023-03-22T05:27:01.014Z,74.58
2023-03-22T05:29:28.447Z,74.44
2023-03-22T05:31:55.771Z,74.61
2023-03-22T05:34:22.803Z,74.53
2023-03-22T05:36:51.868Z,75.30
2023-03-22T05:39:19.017Z,74.97
2023-03-22T05:41:46.382Z,74.75
2023-03-22T05:44:14.000Z,74.48
2023-03-22T05:46:41.150Z,74.75
2023-03-22T05:49:09.084Z,74.88
2023-03-22T05:51:41.947Z,75.00
2023-03-22T05:54:09.784Z,74.99
2023-03-22T05:56:37.072Z,75.19
2023-03-22T05:59:04.858Z,74.99
2023-03-22T06:01:33.381Z,75.43
2023-03-22T06:04:00.819Z,75.20
2023-03-22T06:06:28.132Z,74.73
2023-03-22T06:09:06.997Z,74.69
2023-03-22T06:11:41.422Z,75.62
2023-03-22T06:14:08.464Z,75.49
2023-03-22T06:16:35.604Z,74.90
2023-03-22T06:19:02.819Z,75.06
2023-03-22T06:21:29.851Z,75.09
2023-03-22T06:23:56.913Z,75.44
2023-03-22T06:26:24.078Z,75.31
2023-03-22T06:28:51.190Z,75.36
2023-03-22T06:31:18.353Z,75.17
2023-03-22T06:33:47.123Z,75.51
2023-03-22T06:36:14.440Z,75.50
2023-03-22T06:38:44.604Z,75.13
2023-03-22T06:41:11.941Z,75.02
2023-03-22T06:43:38.979Z,74.87
2023-03-22T06:46:06.066Z,74.69
2023-03-22T06:48:33.158Z,74.28
2023-03-22T06:51:00.819Z,74.06
2023-03-22T06:53:27.873Z,73.98
2023-03-22T06:55:55.496Z,74.23
2023-03-22T06:58:23.624Z,73.40
2023-03-22T07:00:50.784Z,73.27
2023-03-22T07:03:17.952Z,72.61
2023-03-22T07:05:45.097Z,72.27
2023-03-22T07:08:12.139Z,72.38
2023-03-22T07:10:39.447Z,71.87
2023-03-22T07:13:06.672Z,71.40
2023-03-22T07:15:34.353Z,71.16
2023-03-22T07:18:01.987Z,71.18
2023-03-22T07:20:29.066Z,70.99
2023-03-22T07:22:56.249Z,70.80
2023-03-22T07:25:23.356Z,71.27
2023-03-22T07:27:50.524Z,70.92
2023-03-22T07:30:17.835Z,69.65
2023-03-22T07:32:45.033Z,69.94
2023-03-22T07:35:12.062Z,68.50
2023-03-22T07:37:39.121Z,68.50
2023-03-22T07:40:07.073Z,67.65
2023-03-22T07:42:34.754Z,67.09
2023-03-22T07:45:01.997Z,67.09
2023-03-22T07:47:40.501Z,66.96
2023-03-22T07:50:09.805Z,66.64
2023-03-22T07:52:37.067Z,65.96
2023-03-22T07:55:05.024Z,65.05
2023-03-22T07:57:32.372Z,65.22
2023-03-22T07:59:59.504Z,65.47
2023-03-22T08:02:26.633Z,64.71
2023-03-22T08:04:56.504Z,64.50
2023-03-22T08:07:25.290Z,62.69
2023-03-22T08:09:52.693Z,62.71
2023-03-22T08:12:19.849Z,62.31
2023-03-22T08:14:50.756Z,61.07
2023-03-22T08:17:18.856Z,60.77
2023-03-22T08:19:46.362Z,61.25
2023-03-22T08:22:14.028Z,60.48
2023-03-22T08:24:41.432Z,61.35
2023-03-22T08:27:08.738Z,60.82
2023-03-22T08:29:37.508Z,61.11
2023-03-22T08:32:05.720Z,61.08
2023-03-22T08:34:38.146Z,59.98
2023-03-22T08:37:06.526Z,59.78
2023-03-22T08:39:33.867Z,58.58
2023-03-22T08:42:02.800Z,57.70
2023-03-22T08:44:30.141Z,56.70
2023-03-22T08:46:57.308Z,57.22
2023-03-22T08:49:24.659Z,56.64
2023-03-22T08:51:51.730Z,56.67
2023-03-22T08:54:18.952Z,56.79
2023-03-22T08:56:46.883Z,57.66
2023-03-22T08:59:14.051Z,56.37
2023-03-22T09:01:41.248Z,56.79
2023-03-22T09:04:10.538Z,56.94
2023-03-22T09:06:38.687Z,56.31
2023-03-22T09:09:06.402Z,55.51
2023-03-22T09:11:34.641Z,56.31
2023-03-22T09:14:01.882Z,55.79
2023-03-22T09:16:29.172Z,55.93
2023-03-22T09:18:56.284Z,55.10
2023-03-22T09:21:23.660Z,55.67
2023-03-22T09:23:50.807Z,54.86
2023-03-22T09:26:18.834Z,53.18
2023-03-22T09:28:46.800Z,52.83
2023-03-22T09:31:14.025Z,53.58
2023-03-22T09:33:41.724Z,52.83
2023-03-22T09:36:09.727Z,52.56
2023-03-22T09:38:36.954Z,51.71
2023-03-22T09:41:17.001Z,50.66
2023-03-22T09:43:49.516Z,51.11
2023-03-22T09:46:44.719Z,50.33
2023-03-22T09:49:18.558Z,51.08
2023-03-22T09:51:55.430Z,51.25
2023-03-22T09:54:36.430Z,51.85
2023-03-22T09:57:24.576Z,52.21
2023-03-22T10:00:11.109Z,51.34
2023-03-22T10:02:51.289Z,51.27
2023-03-22T10:05:39.721Z,52.20
2023-03-22T10:08:10.302Z,52.40
2023-03-22T10:10:46.062Z,52.58
2023-03-22T10:13:31.797Z,52.79
2023-03-22T10:16:05.962Z,53.56
2023-03-22T10:18:39.602Z,51.59
2023-03-22T10:21:08.694Z,49.31
2023-03-22T10:23:43.944Z,48.96
2023-03-22T10:26:20.293Z,49.87
2023-03-22T10:28:53.987Z,50.54
2023-03-22T10:31:21.355Z,49.38
2023-03-22T10:33:52.213Z,49.39
2023-03-22T10:36:22.350Z,49.49
2023-03-22T10:38:54.937Z,50.29
2023-03-22T10:41:24.709Z,50.44
2023-03-22T10:43:58.408Z,50.56
2023-03-22T10:46:28.300Z,50.97
2023-03-22T10:48:58.574Z,51.26
2023-03-22T10:51:48.703Z,51.82
2023-03-22T10:54:17.874Z,51.64
2023-03-22T10:56:46.173Z,51.26
2023-03-22T10:59:41.703Z,50.93
2023-03-22T11:02:32.411Z,49.44
2023-03-22T11:05:02.338Z,49.62
2023-03-22T11:07:36.455Z,49.96
2023-03-22T11:10:09.803Z,49.01
2023-03-22T11:12:46.846Z,48.00
2023-03-22T11:15:24.408Z,47.50
2023-03-22T11:17:52.388Z,48.83
2023-03-22T11:20:19.810Z,48.86
2023-03-22T11:22:48.078Z,47.57
2023-03-22T11:25:37.458Z,47.47
2023-03-22T11:28:04.411Z,46.91
2023-03-22T11:30:32.912Z,47.68
2023-03-22T11:33:19.347Z,48.06
2023-03-22T11:35:53.846Z,47.70
2023-03-22T11:38:30.894Z,45.77
2023-03-22T11:41:03.305Z,45.65
2023-03-22T11:43:36.516Z,45.88
2023-03-22T11:46:04.338Z,46.44
2023-03-22T11:48:32.916Z,46.50
2023-03-22T11:51:20.427Z,46.78
2023-03-22T11:53:48.354Z,45.66
2023-03-22T11:56:19.000Z,46.68
2023-03-22T11:59:01.367Z,45.06
2023-03-22T12:02:17.990Z,45.20
2023-03-22T12:04:48.407Z,46.16
2023-03-22T12:07:17.440Z,44.69
2023-03-22T12:09:51.354Z,44.80
2023-03-22T12:12:26.106Z,46.50
2023-03-22T12:15:17.075Z,44.34
2023-03-22T12:18:04.081Z,43.93
2023-03-22T12:20:48.462Z,44.26
2023-03-22T12:23:20.716Z,44.52
2023-03-22T12:25:50.873Z,43.79
2023-03-22T12:28:21.348Z,44.70
2023-03-22T12:30:51.535Z,43.74
2023-03-22T12:33:37.609Z,44.08
2023-03-22T12:36:06.243Z,44.21
2023-03-22T12:38:42.682Z,43.64
2023-03-22T12:41:12.831Z,44.22
2023-03-22T12:43:57.275Z,43.78
2023-03-22T12:46:27.923Z,44.41
2023-03-22T12:49:01.107Z,44.30
2023-03-22T12:51:28.197Z,44.65
2023-03-22T12:53:57.675Z,44.42
2023-03-22T12:56:27.927Z,45.19
2023-03-22T12:59:00.376Z,44.22
2023-03-22T13:01:35.970Z,44.83
2023-03-22T13:04:34.141Z,43.77
2023-03-22T13:07:13.908Z,43.95
2023-03-22T13:09:48.579Z,43.97
2023-03-22T13:12:18.507Z,45.09
2023-03-22T13:15:28.266Z,43.11
2023-03-22T13:17:59.111Z,43.30
2023-03-22T13:20:28.851Z,42.47
2023-03-22T13:22:55.951Z,42.02
2023-03-22T13:25:34.383Z,41.73
2023-03-22T13:28:23.005Z,42.37
2023-03-22T13:30:55.095Z,40.13
2023-03-22T13:33:34.804Z,40.92
2023-03-22T13:36:23.945Z,40.39
2023-03-22T13:38:56.280Z,40.12
2023-03-22T13:41:36.171Z,40.76
2023-03-22T13:44:20.371Z,40.78
2023-03-22T13:46:52.495Z,40.78
2023-03-22T13:49:40.317Z,40.41
2023-03-22T13:52:08.224Z,41.27
2023-03-22T13:54:42.670Z,41.73
2023-03-22T13:57:20.806Z,42.11
2023-03-22T14:00:20.420Z,41.99
2023-03-22T14:02:48.833Z,41.86
2023-03-22T14:05:18.440Z,42.20
2023-03-22T14:07:56.959Z,41.93
2023-03-22T14:10:53.476Z,42.64
2023-03-22T14:13:31.903Z,43.09
2023-03-22T14:16:37.766Z,42.63
2023-03-22T14:19:09.021Z,42.73
2023-03-22T14:21:42.214Z,42.57
